GBB102 FALE-FAOR
Flight info
| Callsign | GBB102 |
|---|---|
| Flight time | 0h 49m |
| Altitude | 34000 |
| Route | GEPOM UZ29 UNPOM UNPOM1A |
| Aircraft | A320/M-SDE3FGHIRWY/LB1 |
Departure
| Time | 2026-05-04 14:54 |
|---|---|
| Airport | King Shaka International Airport (FALE) |
Arrival
| Time | 2026-05-04 15:44 |
|---|---|
| Airport | O.R. Tambo International Airport (FAOR) |
| Time | Latitude | Longitude | Altitude | Speed | Heading |
|---|---|---|---|---|---|
| 2026-05-04 14:17 | -29.61933 | 31.10600 | 281 ft | 0 kts | 308° |
| 2026-05-04 14:47 | -29.61939 | 31.10609 | 280 ft | 4 kts | 306° |
| 2026-05-04 14:47 | -29.61953 | 31.10635 | 285 ft | 3 kts | 291° |
| 2026-05-04 14:47 | -29.61958 | 31.10663 | 280 ft | 4 kts | 249° |
| 2026-05-04 14:47 | -29.61952 | 31.10675 | 286 ft | 0 kts | 217° |
| 2026-05-04 14:52 | -29.61976 | 31.10654 | 282 ft | 11 kts | 217° |
| 2026-05-04 14:52 | -29.62053 | 31.10586 | 280 ft | 15 kts | 218° |
| 2026-05-04 14:52 | -29.62142 | 31.10509 | 280 ft | 17 kts | 217° |
| 2026-05-04 14:52 | -29.62242 | 31.10431 | 280 ft | 17 kts | 187° |
| 2026-05-04 14:53 | -29.62325 | 31.10526 | 280 ft | 18 kts | 128° |
| 2026-05-04 14:53 | -29.62406 | 31.10647 | 280 ft | 20 kts | 129° |
| 2026-05-04 14:53 | -29.62484 | 31.10775 | 281 ft | 14 kts | 102° |
| 2026-05-04 14:53 | -29.62406 | 31.10860 | 282 ft | 27 kts | 37° |
| 2026-05-04 14:54 | -29.62070 | 31.11153 | 282 ft | 92 kts | 37° |
| 2026-05-04 14:54 | -29.61417 | 31.11721 | 284 ft | 141 kts | 37° |
| 2026-05-04 14:54 | -29.60551 | 31.12476 | 513 ft | 161 kts | 37° |
| 2026-05-04 14:54 | -29.59665 | 31.13256 | 1135 ft | 161 kts | 37° |
| 2026-05-04 14:55 | -29.58771 | 31.14044 | 1674 ft | 162 kts | 37° |
| 2026-05-04 14:55 | -29.57866 | 31.14832 | 2067 ft | 171 kts | 38° |
| 2026-05-04 14:55 | -29.56843 | 31.15718 | 2170 ft | 197 kts | 37° |
| 2026-05-04 14:55 | -29.55679 | 31.16726 | 2264 ft | 224 kts | 38° |
| 2026-05-04 14:56 | -29.54369 | 31.17883 | 2501 ft | 249 kts | 38° |
| 2026-05-04 14:56 | -29.52846 | 31.18924 | 3069 ft | 260 kts | 19° |
| 2026-05-04 14:56 | -29.51045 | 31.19138 | 3792 ft | 266 kts | 352° |
| 2026-05-04 14:56 | -29.49344 | 31.18325 | 4585 ft | 270 kts | 323° |
| 2026-05-04 14:57 | -29.48104 | 31.16688 | 5350 ft | 274 kts | 306° |
| 2026-05-04 14:57 | -29.47019 | 31.14873 | 6099 ft | 278 kts | 306° |
| 2026-05-04 14:57 | -29.45925 | 31.13031 | 6823 ft | 280 kts | 306° |
| 2026-05-04 14:57 | -29.44813 | 31.11188 | 7577 ft | 282 kts | 306° |
| 2026-05-04 14:58 | -29.43687 | 31.09343 | 8329 ft | 283 kts | 306° |
| 2026-05-04 14:58 | -29.42550 | 31.07488 | 9107 ft | 285 kts | 305° |
| 2026-05-04 14:58 | -29.41403 | 31.05618 | 9836 ft | 288 kts | 305° |
| 2026-05-04 14:58 | -29.40233 | 31.03708 | 10275 ft | 301 kts | 305° |
| 2026-05-04 14:59 | -29.38984 | 31.01668 | 10417 ft | 324 kts | 305° |
| 2026-05-04 14:59 | -29.37665 | 30.99511 | 10818 ft | 334 kts | 305° |
| 2026-05-04 14:59 | -29.34978 | 30.95115 | 12148 ft | 339 kts | 304° |
| 2026-05-04 15:00 | -29.33623 | 30.92901 | 12803 ft | 341 kts | 305° |
| 2026-05-04 15:00 | -29.32255 | 30.90674 | 13506 ft | 341 kts | 305° |
| 2026-05-04 15:00 | -29.30884 | 30.88450 | 14130 ft | 343 kts | 305° |
| 2026-05-04 15:01 | -29.28124 | 30.83965 | 15352 ft | 345 kts | 305° |
| 2026-05-04 15:01 | -29.26743 | 30.81714 | 15959 ft | 346 kts | 306° |
| 2026-05-04 15:01 | -29.25351 | 30.79451 | 16562 ft | 348 kts | 306° |
| 2026-05-04 15:01 | -29.23969 | 30.77204 | 17155 ft | 350 kts | 306° |
| 2026-05-04 15:02 | -29.22564 | 30.74918 | 17712 ft | 352 kts | 306° |
| 2026-05-04 15:02 | -29.21150 | 30.72619 | 18289 ft | 354 kts | 306° |
| 2026-05-04 15:02 | -29.19726 | 30.70310 | 18788 ft | 356 kts | 306° |
| 2026-05-04 15:02 | -29.18291 | 30.67986 | 19304 ft | 359 kts | 306° |
| 2026-05-04 15:03 | -29.16849 | 30.65646 | 19825 ft | 361 kts | 305° |
| 2026-05-04 15:03 | -29.15395 | 30.63288 | 20362 ft | 363 kts | 305° |
| 2026-05-04 15:03 | -29.13931 | 30.60922 | 20904 ft | 365 kts | 306° |
| 2026-05-04 15:03 | -29.12256 | 30.58719 | 21411 ft | 368 kts | 315° |
| 2026-05-04 15:04 | -29.10261 | 30.56869 | 21908 ft | 373 kts | 324° |
| 2026-05-04 15:04 | -29.08081 | 30.55233 | 22387 ft | 375 kts | 324° |
| 2026-05-04 15:04 | -29.05891 | 30.53589 | 22852 ft | 378 kts | 324° |
| 2026-05-04 15:04 | -29.03687 | 30.51932 | 23313 ft | 380 kts | 324° |
| 2026-05-04 15:05 | -29.01469 | 30.50260 | 23742 ft | 383 kts | 324° |
| 2026-05-04 15:05 | -28.99241 | 30.48579 | 24147 ft | 385 kts | 324° |
| 2026-05-04 15:05 | -28.97003 | 30.46890 | 24547 ft | 386 kts | 323° |
| 2026-05-04 15:05 | -28.94755 | 30.45195 | 24950 ft | 388 kts | 323° |
| 2026-05-04 15:06 | -28.92494 | 30.43492 | 25348 ft | 390 kts | 323° |
| 2026-05-04 15:06 | -28.90227 | 30.41787 | 25727 ft | 391 kts | 323° |
| 2026-05-04 15:06 | -28.87947 | 30.40076 | 26051 ft | 394 kts | 323° |
| 2026-05-04 15:07 | -28.83388 | 30.36650 | 26844 ft | 395 kts | 323° |
| 2026-05-04 15:07 | -28.81090 | 30.34921 | 27211 ft | 397 kts | 323° |
| 2026-05-04 15:07 | -28.78779 | 30.33187 | 27567 ft | 398 kts | 323° |
| 2026-05-04 15:07 | -28.76452 | 30.31443 | 27891 ft | 401 kts | 323° |
| 2026-05-04 15:08 | -28.74115 | 30.29693 | 28245 ft | 402 kts | 323° |
| 2026-05-04 15:08 | -28.71768 | 30.27932 | 28601 ft | 404 kts | 323° |
| 2026-05-04 15:08 | -28.69417 | 30.26166 | 28973 ft | 405 kts | 322° |
| 2026-05-04 15:08 | -28.67057 | 30.24397 | 29289 ft | 408 kts | 322° |
| 2026-05-04 15:09 | -28.64677 | 30.22618 | 29583 ft | 410 kts | 322° |
| 2026-05-04 15:09 | -28.62289 | 30.20839 | 30026 ft | 409 kts | 322° |
| 2026-05-04 15:09 | -28.59910 | 30.19067 | 30410 ft | 408 kts | 322° |
| 2026-05-04 15:10 | -28.55169 | 30.15538 | 31214 ft | 406 kts | 322° |
| 2026-05-04 15:10 | -28.52811 | 30.13780 | 31617 ft | 405 kts | 322° |
| 2026-05-04 15:10 | -28.48144 | 30.10295 | 32483 ft | 401 kts | 321° |
| 2026-05-04 15:11 | -28.45821 | 30.08560 | 32965 ft | 398 kts | 321° |
| 2026-05-04 15:11 | -28.43505 | 30.06835 | 33393 ft | 396 kts | 321° |
| 2026-05-04 15:11 | -28.41208 | 30.05126 | 33812 ft | 395 kts | 321° |
| 2026-05-04 15:11 | -28.38901 | 30.03410 | 33973 ft | 396 kts | 321° |
| 2026-05-04 15:12 | -28.36586 | 30.01687 | 34017 ft | 398 kts | 321° |
| 2026-05-04 15:12 | -28.31940 | 29.98231 | 34015 ft | 399 kts | 321° |
| 2026-05-04 15:13 | -28.27293 | 29.94788 | 34028 ft | 399 kts | 321° |
| 2026-05-04 15:13 | -28.22636 | 29.91344 | 34029 ft | 400 kts | 321° |
| 2026-05-04 15:14 | -28.18003 | 29.87913 | 34049 ft | 401 kts | 321° |
| 2026-05-04 15:14 | -28.13336 | 29.84456 | 34048 ft | 401 kts | 321° |
| 2026-05-04 15:15 | -28.08658 | 29.81010 | 34095 ft | 401 kts | 321° |
| 2026-05-04 15:15 | -28.03992 | 29.77570 | 34095 ft | 399 kts | 322° |
| 2026-05-04 15:16 | -27.97003 | 29.72423 | 34083 ft | 399 kts | 322° |
| 2026-05-04 15:17 | -27.90020 | 29.67274 | 34104 ft | 399 kts | 321° |
| 2026-05-04 15:17 | -27.83037 | 29.62147 | 34115 ft | 399 kts | 322° |
| 2026-05-04 15:18 | -27.78378 | 29.58735 | 34126 ft | 399 kts | 322° |
| 2026-05-04 15:19 | -27.71410 | 29.53635 | 34129 ft | 399 kts | 322° |
| 2026-05-04 15:19 | -27.64410 | 29.48519 | 34132 ft | 400 kts | 322° |
| 2026-05-04 15:20 | -27.59738 | 29.45115 | 34142 ft | 400 kts | 322° |
| 2026-05-04 15:20 | -27.55066 | 29.41710 | 34127 ft | 400 kts | 322° |
| 2026-05-04 15:21 | -27.50382 | 29.38298 | 34130 ft | 401 kts | 322° |
| 2026-05-04 15:22 | -27.44133 | 29.33756 | 34144 ft | 402 kts | 322° |
| 2026-05-04 15:22 | -27.37086 | 29.28636 | 34153 ft | 402 kts | 322° |
| 2026-05-04 15:23 | -27.32385 | 29.25220 | 34131 ft | 403 kts | 322° |
| 2026-05-04 15:23 | -27.27675 | 29.21801 | 34150 ft | 403 kts | 322° |
| 2026-05-04 15:24 | -27.18176 | 29.15154 | 33591 ft | 406 kts | 327° |
| 2026-05-04 15:25 | -27.15678 | 29.13694 | 33345 ft | 404 kts | 327° |
| 2026-05-04 15:25 | -27.13191 | 29.12236 | 33022 ft | 402 kts | 327° |
| 2026-05-04 15:25 | -27.10723 | 29.10789 | 32502 ft | 399 kts | 327° |
| 2026-05-04 15:26 | -27.05823 | 29.07911 | 31437 ft | 395 kts | 327° |
| 2026-05-04 15:26 | -27.03392 | 29.06482 | 30902 ft | 394 kts | 327° |
| 2026-05-04 15:26 | -26.98549 | 29.03636 | 29789 ft | 392 kts | 328° |
| 2026-05-04 15:27 | -26.96140 | 29.02225 | 29272 ft | 388 kts | 328° |
| 2026-05-04 15:27 | -26.91390 | 28.99443 | 28265 ft | 382 kts | 328° |
| 2026-05-04 15:28 | -26.86721 | 28.96713 | 27294 ft | 376 kts | 329° |
| 2026-05-04 15:28 | -26.84409 | 28.95361 | 26848 ft | 373 kts | 328° |
| 2026-05-04 15:28 | -26.79830 | 28.92681 | 25911 ft | 370 kts | 329° |
| 2026-05-04 15:29 | -26.77553 | 28.91351 | 25467 ft | 368 kts | 329° |
| 2026-05-04 15:30 | -26.69384 | 28.85158 | 24383 ft | 339 kts | 303° |
| 2026-05-04 15:30 | -26.66744 | 28.78070 | 23312 ft | 327 kts | 293° |
| 2026-05-04 15:31 | -26.65007 | 28.72908 | 21977 ft | 322 kts | 293° |
| 2026-05-04 15:31 | -26.64220 | 28.70583 | 21335 ft | 318 kts | 293° |
| 2026-05-04 15:32 | -26.61901 | 28.63759 | 19527 ft | 312 kts | 293° |
| 2026-05-04 15:32 | -26.60371 | 28.59253 | 18808 ft | 309 kts | 292° |
| 2026-05-04 15:33 | -26.58859 | 28.54786 | 18021 ft | 306 kts | 292° |
| 2026-05-04 15:34 | -26.56019 | 28.46430 | 16016 ft | 299 kts | 292° |
| 2026-05-04 15:34 | -26.54547 | 28.42120 | 14977 ft | 296 kts | 292° |
| 2026-05-04 15:35 | -26.53078 | 28.37823 | 14050 ft | 290 kts | 292° |
| 2026-05-04 15:35 | -26.52378 | 28.35768 | 13891 ft | 276 kts | 292° |
| 2026-05-04 15:35 | -26.51670 | 28.33832 | 13756 ft | 261 kts | 300° |
| 2026-05-04 15:36 | -26.49082 | 28.31401 | 13489 ft | 244 kts | 329° |
| 2026-05-04 15:36 | -26.47587 | 28.30467 | 13366 ft | 248 kts | 329° |
| 2026-05-04 15:36 | -26.46080 | 28.29535 | 13065 ft | 247 kts | 329° |
| 2026-05-04 15:37 | -26.44582 | 28.28612 | 12684 ft | 245 kts | 329° |
| 2026-05-04 15:37 | -26.43126 | 28.27720 | 12538 ft | 233 kts | 329° |
| 2026-05-04 15:37 | -26.41722 | 28.26866 | 12251 ft | 228 kts | 329° |
| 2026-05-04 15:37 | -26.40330 | 28.26024 | 11936 ft | 225 kts | 329° |
| 2026-05-04 15:38 | -26.38981 | 28.25214 | 11758 ft | 214 kts | 329° |
| 2026-05-04 15:38 | -26.37689 | 28.24446 | 11432 ft | 209 kts | 329° |
| 2026-05-04 15:38 | -26.36404 | 28.23693 | 11041 ft | 208 kts | 329° |
| 2026-05-04 15:38 | -26.35126 | 28.22952 | 10650 ft | 207 kts | 329° |
| 2026-05-04 15:39 | -26.33852 | 28.22217 | 10272 ft | 206 kts | 329° |
| 2026-05-04 15:39 | -26.32580 | 28.21483 | 9847 ft | 206 kts | 330° |
| 2026-05-04 15:39 | -26.29980 | 28.20343 | 9335 ft | 192 kts | 343° |
| 2026-05-04 15:40 | -26.28704 | 28.20071 | 9073 ft | 188 kts | 350° |
| 2026-05-04 15:40 | -26.27376 | 28.20017 | 8746 ft | 187 kts | 356° |
| 2026-05-04 15:40 | -26.26091 | 28.20072 | 8404 ft | 184 kts | 2° |
| 2026-05-04 15:40 | -26.24827 | 28.20321 | 7979 ft | 185 kts | 8° |
| 2026-05-04 15:41 | -26.23589 | 28.20654 | 7628 ft | 179 kts | 11° |
| 2026-05-04 15:41 | -26.22416 | 28.21027 | 7319 ft | 173 kts | 12° |
| 2026-05-04 15:41 | -26.21281 | 28.21408 | 7006 ft | 167 kts | 12° |
| 2026-05-04 15:41 | -26.20196 | 28.21737 | 6768 ft | 158 kts | 11° |
| 2026-05-04 15:42 | -26.19137 | 28.22050 | 6653 ft | 154 kts | 11° |
| 2026-05-04 15:42 | -26.18121 | 28.22328 | 6402 ft | 151 kts | 11° |
| 2026-05-04 15:42 | -26.17091 | 28.22666 | 6199 ft | 157 kts | 15° |
| 2026-05-04 15:42 | -26.16035 | 28.23017 | 5941 ft | 161 kts | 11° |
| 2026-05-04 15:43 | -26.14957 | 28.23336 | 5679 ft | 159 kts | 11° |
| 2026-05-04 15:43 | -26.13917 | 28.23667 | 5569 ft | 143 kts | 12° |
| 2026-05-04 15:43 | -26.13072 | 28.23921 | 5544 ft | 104 kts | 16° |
| 2026-05-04 15:43 | -26.12540 | 28.24087 | 5538 ft | 55 kts | 15° |
| 2026-05-04 15:44 | -26.12205 | 28.24189 | 5534 ft | 48 kts | 16° |
| 2026-05-04 15:44 | -26.11954 | 28.24272 | 5531 ft | 23 kts | 14° |
| 2026-05-04 15:44 | -26.11850 | 28.24203 | 5528 ft | 19 kts | 288° |
| 2026-05-04 15:44 | -26.11880 | 28.24086 | 5526 ft | 18 kts | 194° |
| 2026-05-04 15:45 | -26.11992 | 28.24053 | 5531 ft | 16 kts | 195° |
| 2026-05-04 15:45 | -26.12098 | 28.24020 | 5532 ft | 16 kts | 195° |
| 2026-05-04 15:45 | -26.12205 | 28.23988 | 5538 ft | 16 kts | 194° |
| 2026-05-04 15:45 | -26.12317 | 28.23953 | 5536 ft | 19 kts | 195° |
| 2026-05-04 15:46 | -26.12458 | 28.23908 | 5538 ft | 24 kts | 196° |
| 2026-05-04 15:46 | -26.12627 | 28.23856 | 5542 ft | 25 kts | 195° |
| 2026-05-04 15:46 | -26.12799 | 28.23804 | 5543 ft | 26 kts | 195° |
| 2026-05-04 15:46 | -26.12973 | 28.23750 | 5545 ft | 26 kts | 195° |
| 2026-05-04 15:47 | -26.13147 | 28.23695 | 5545 ft | 27 kts | 196° |
| 2026-05-04 15:47 | -26.13329 | 28.23641 | 5545 ft | 27 kts | 195° |
| 2026-05-04 15:47 | -26.13505 | 28.23585 | 5548 ft | 26 kts | 197° |
| 2026-05-04 15:47 | -26.13679 | 28.23532 | 5550 ft | 26 kts | 196° |
| 2026-05-04 15:48 | -26.13790 | 28.23486 | 5553 ft | 12 kts | 238° |
| 2026-05-04 15:48 | -26.13772 | 28.23379 | 5547 ft | 17 kts | 285° |
| 2026-05-04 15:48 | -26.13748 | 28.23127 | 5548 ft | 10 kts | 275° |
| 2026-05-04 15:49 | -26.13742 | 28.23066 | 5550 ft | 5 kts | 282° |
| 2026-05-04 15:49 | -26.13718 | 28.23061 | 5549 ft | 4 kts | 358° |
| 2026-05-04 15:49 | -26.13694 | 28.23063 | 5547 ft | 3 kts | 7° |
| 2026-05-04 15:49 | -26.13678 | 28.23065 | 5549 ft | 0 kts | 6° |